sensor_id;sensor_type;location;lat;lon;timestamp;P1;durP1;ratioP1;P2;durP2;ratioP2
74162;SDS011;62515;52.758;5.076;2023-09-12T00:00:44;114.57;;;48.28;;
74162;SDS011;62515;52.758;5.076;2023-09-12T00:03:12;110.28;;;44.40;;
74162;SDS011;62515;52.758;5.076;2023-09-12T00:05:39;112.85;;;47.42;;
74162;SDS011;62515;52.758;5.076;2023-09-12T00:08:05;120.13;;;46.50;;
74162;SDS011;62515;52.758;5.076;2023-09-12T00:10:33;118.45;;;42.97;;
74162;SDS011;62515;52.758;5.076;2023-09-12T00:12:59;121.40;;;45.45;;
74162;SDS011;62515;52.758;5.076;2023-09-12T00:15:26;110.97;;;42.65;;
74162;SDS011;62515;52.758;5.076;2023-09-12T00:17:53;124.15;;;44.72;;
74162;SDS011;62515;52.758;5.076;2023-09-12T00:20:21;108.65;;;45.28;;
74162;SDS011;62515;52.758;5.076;2023-09-12T00:22:48;108.45;;;42.15;;
74162;SDS011;62515;52.758;5.076;2023-09-12T00:25:15;117.53;;;44.05;;
74162;SDS011;62515;52.758;5.076;2023-09-12T00:27:41;119.68;;;41.75;;
74162;SDS011;62515;52.758;5.076;2023-09-12T00:30:08;138.48;;;44.97;;
74162;SDS011;62515;52.758;5.076;2023-09-12T00:32:36;141.18;;;41.88;;
74162;SDS011;62515;52.758;5.076;2023-09-12T00:35:03;138.25;;;41.88;;
74162;SDS011;62515;52.758;5.076;2023-09-12T00:37:32;144.90;;;40.80;;
74162;SDS011;62515;52.758;5.076;2023-09-12T00:39:58;134.63;;;41.63;;
74162;SDS011;62515;52.758;5.076;2023-09-12T00:42:25;126.10;;;38.97;;
74162;SDS011;62515;52.758;5.076;2023-09-12T00:44:52;142.40;;;40.47;;
74162;SDS011;62515;52.758;5.076;2023-09-12T00:47:19;136.32;;;40.90;;
74162;SDS011;62515;52.758;5.076;2023-09-12T00:49:47;125.72;;;37.95;;
74162;SDS011;62515;52.758;5.076;2023-09-12T00:52:22;134.27;;;42.08;;
74162;SDS011;62515;52.758;5.076;2023-09-12T00:54:52;144.85;;;43.67;;
74162;SDS011;62515;52.758;5.076;2023-09-12T00:57:20;144.45;;;42.38;;
74162;SDS011;62515;52.758;5.076;2023-09-12T00:59:47;137.00;;;44.28;;
74162;SDS011;62515;52.758;5.076;2023-09-12T01:02:15;151.55;;;42.35;;
74162;SDS011;62515;52.758;5.076;2023-09-12T01:04:43;155.07;;;39.85;;
74162;SDS011;62515;52.758;5.076;2023-09-12T01:07:11;155.25;;;38.78;;
74162;SDS011;62515;52.758;5.076;2023-09-12T01:09:37;125.38;;;31.98;;
74162;SDS011;62515;52.758;5.076;2023-09-12T01:12:06;97.68;;;27.23;;
74162;SDS011;62515;52.758;5.076;2023-09-12T01:14:33;65.95;;;24.13;;
74162;SDS011;62515;52.758;5.076;2023-09-12T01:17:00;53.75;;;20.52;;
74162;SDS011;62515;52.758;5.076;2023-09-12T01:19:27;142.10;;;26.27;;
74162;SDS011;62515;52.758;5.076;2023-09-12T01:22:07;73.40;;;20.30;;
74162;SDS011;62515;52.758;5.076;2023-09-12T01:25:00;50.08;;;22.90;;
74162;SDS011;62515;52.758;5.076;2023-09-12T01:27:42;70.43;;;26.02;;
74162;SDS011;62515;52.758;5.076;2023-09-12T01:30:13;120.20;;;25.88;;
74162;SDS011;62515;52.758;5.076;2023-09-12T01:32:43;86.55;;;24.02;;
74162;SDS011;62515;52.758;5.076;2023-09-12T01:35:12;94.35;;;24.70;;
74162;SDS011;62515;52.758;5.076;2023-09-12T01:37:39;43.63;;;23.75;;
74162;SDS011;62515;52.758;5.076;2023-09-12T01:40:06;46.47;;;23.92;;
74162;SDS011;62515;52.758;5.076;2023-09-12T01:42:35;53.75;;;23.23;;
74162;SDS011;62515;52.758;5.076;2023-09-12T01:45:06;52.78;;;22.08;;
74162;SDS011;62515;52.758;5.076;2023-09-12T01:47:36;53.03;;;19.80;;
74162;SDS011;62515;52.758;5.076;2023-09-12T01:50:05;187.80;;;26.75;;
74162;SDS011;62515;52.758;5.076;2023-09-12T01:52:35;66.63;;;20.10;;
74162;SDS011;62515;52.758;5.076;2023-09-12T01:55:03;68.22;;;21.88;;
74162;SDS011;62515;52.758;5.076;2023-09-12T01:57:31;61.47;;;22.83;;
74162;SDS011;62515;52.758;5.076;2023-09-12T01:59:58;106.10;;;24.58;;
74162;SDS011;62515;52.758;5.076;2023-09-12T02:02:26;138.15;;;23.13;;
74162;SDS011;62515;52.758;5.076;2023-09-12T02:04:54;65.43;;;20.38;;
74162;SDS011;62515;52.758;5.076;2023-09-12T02:07:32;71.00;;;22.73;;
74162;SDS011;62515;52.758;5.076;2023-09-12T02:12:27;42.50;;;19.77;;
74162;SDS011;62515;52.758;5.076;2023-09-12T02:14:54;50.70;;;21.58;;
74162;SDS011;62515;52.758;5.076;2023-09-12T02:17:21;58.72;;;22.77;;
74162;SDS011;62515;52.758;5.076;2023-09-12T02:19:49;53.35;;;24.27;;
74162;SDS011;62515;52.758;5.076;2023-09-12T02:22:16;57.35;;;22.08;;
74162;SDS011;62515;52.758;5.076;2023-09-12T02:24:43;65.88;;;24.58;;
74162;SDS011;62515;52.758;5.076;2023-09-12T02:27:10;60.05;;;23.42;;
74162;SDS011;62515;52.758;5.076;2023-09-12T02:29:38;57.60;;;22.40;;
74162;SDS011;62515;52.758;5.076;2023-09-12T02:32:06;63.20;;;23.42;;
74162;SDS011;62515;52.758;5.076;2023-09-12T02:34:33;54.85;;;21.35;;
74162;SDS011;62515;52.758;5.076;2023-09-12T02:37:01;64.72;;;22.98;;
74162;SDS011;62515;52.758;5.076;2023-09-12T02:39:28;77.07;;;22.90;;
74162;SDS011;62515;52.758;5.076;2023-09-12T02:41:55;72.50;;;23.95;;
74162;SDS011;62515;52.758;5.076;2023-09-12T02:44:22;91.85;;;25.25;;
74162;SDS011;62515;52.758;5.076;2023-09-12T02:46:48;81.25;;;27.92;;
74162;SDS011;62515;52.758;5.076;2023-09-12T02:49:15;99.00;;;29.40;;
74162;SDS011;62515;52.758;5.076;2023-09-12T02:51:42;98.55;;;31.58;;
74162;SDS011;62515;52.758;5.076;2023-09-12T02:54:10;141.75;;;39.47;;
74162;SDS011;62515;52.758;5.076;2023-09-12T02:56:37;135.43;;;34.60;;
74162;SDS011;62515;52.758;5.076;2023-09-12T02:59:03;109.93;;;31.55;;
74162;SDS011;62515;52.758;5.076;2023-09-12T03:01:30;106.47;;;32.15;;
74162;SDS011;62515;52.758;5.076;2023-09-12T03:03:57;96.65;;;31.25;;
74162;SDS011;62515;52.758;5.076;2023-09-12T03:06:24;133.63;;;36.55;;
74162;SDS011;62515;52.758;5.076;2023-09-12T03:08:51;100.25;;;30.50;;
74162;SDS011;62515;52.758;5.076;2023-09-12T03:11:19;129.23;;;34.50;;
74162;SDS011;62515;52.758;5.076;2023-09-12T03:13:46;111.40;;;34.08;;
74162;SDS011;62515;52.758;5.076;2023-09-12T03:16:13;164.23;;;41.28;;
74162;SDS011;62515;52.758;5.076;2023-09-12T03:18:41;187.43;;;46.10;;
74162;SDS011;62515;52.758;5.076;2023-09-12T03:21:08;216.00;;;47.22;;
74162;SDS011;62515;52.758;5.076;2023-09-12T03:23:35;221.48;;;48.25;;
74162;SDS011;62515;52.758;5.076;2023-09-12T03:26:02;222.85;;;48.78;;
74162;SDS011;62515;52.758;5.076;2023-09-12T03:28:31;227.45;;;48.83;;
74162;SDS011;62515;52.758;5.076;2023-09-12T03:31:06;240.52;;;49.67;;
74162;SDS011;62515;52.758;5.076;2023-09-12T03:33:34;245.68;;;47.97;;
74162;SDS011;62515;52.758;5.076;2023-09-12T03:36:01;235.82;;;51.08;;
74162;SDS011;62515;52.758;5.076;2023-09-12T03:38:28;254.32;;;52.13;;
74162;SDS011;62515;52.758;5.076;2023-09-12T03:40:55;272.77;;;50.85;;
74162;SDS011;62515;52.758;5.076;2023-09-12T03:43:22;253.88;;;53.15;;
74162;SDS011;62515;52.758;5.076;2023-09-12T03:45:50;256.92;;;50.47;;
74162;SDS011;62515;52.758;5.076;2023-09-12T03:48:17;282.80;;;52.70;;
74162;SDS011;62515;52.758;5.076;2023-09-12T03:50:44;245.82;;;51.08;;
74162;SDS011;62515;52.758;5.076;2023-09-12T03:53:13;242.38;;;49.83;;
74162;SDS011;62515;52.758;5.076;2023-09-12T03:55:41;182.90;;;41.08;;
74162;SDS011;62515;52.758;5.076;2023-09-12T03:58:07;184.95;;;43.50;;
74162;SDS011;62515;52.758;5.076;2023-09-12T04:00:34;225.35;;;50.95;;
74162;SDS011;62515;52.758;5.076;2023-09-12T04:03:03;252.60;;;49.20;;
74162;SDS011;62515;52.758;5.076;2023-09-12T04:05:30;270.95;;;56.00;;
74162;SDS011;62515;52.758;5.076;2023-09-12T04:07:57;300.25;;;58.25;;
74162;SDS011;62515;52.758;5.076;2023-09-12T04:10:24;319.23;;;61.47;;
74162;SDS011;62515;52.758;5.076;2023-09-12T04:12:51;324.98;;;59.03;;
74162;SDS011;62515;52.758;5.076;2023-09-12T04:15:17;328.02;;;64.97;;
74162;SDS011;62515;52.758;5.076;2023-09-12T04:17:44;326.67;;;63.08;;
74162;SDS011;62515;52.758;5.076;2023-09-12T04:20:13;336.55;;;63.92;;
74162;SDS011;62515;52.758;5.076;2023-09-12T04:22:40;355.83;;;67.93;;
74162;SDS011;62515;52.758;5.076;2023-09-12T04:25:08;335.67;;;62.75;;
74162;SDS011;62515;52.758;5.076;2023-09-12T04:27:35;335.05;;;65.65;;
74162;SDS011;62515;52.758;5.076;2023-09-12T04:30:02;334.23;;;61.40;;
74162;SDS011;62515;52.758;5.076;2023-09-12T04:32:30;328.83;;;62.88;;
74162;SDS011;62515;52.758;5.076;2023-09-12T04:34:56;326.38;;;62.92;;
74162;SDS011;62515;52.758;5.076;2023-09-12T04:37:24;346.30;;;66.47;;
74162;SDS011;62515;52.758;5.076;2023-09-12T04:39:51;331.25;;;60.17;;
74162;SDS011;62515;52.758;5.076;2023-09-12T04:42:20;325.77;;;73.78;;
74162;SDS011;62515;52.758;5.076;2023-09-12T04:44:46;334.60;;;62.67;;
74162;SDS011;62515;52.758;5.076;2023-09-12T04:47:14;313.48;;;60.53;;
74162;SDS011;62515;52.758;5.076;2023-09-12T04:49:43;310.63;;;60.63;;
74162;SDS011;62515;52.758;5.076;2023-09-12T04:52:10;306.35;;;61.50;;
74162;SDS011;62515;52.758;5.076;2023-09-12T04:54:38;289.08;;;66.28;;
74162;SDS011;62515;52.758;5.076;2023-09-12T04:57:05;274.25;;;62.17;;
74162;SDS011;62515;52.758;5.076;2023-09-12T04:59:33;272.45;;;61.75;;
74162;SDS011;62515;52.758;5.076;2023-09-12T05:02:00;329.50;;;142.35;;
74162;SDS011;62515;52.758;5.076;2023-09-12T05:04:27;271.85;;;54.10;;
74162;SDS011;62515;52.758;5.076;2023-09-12T05:06:54;259.13;;;56.13;;
74162;SDS011;62515;52.758;5.076;2023-09-12T05:09:21;258.70;;;51.83;;
74162;SDS011;62515;52.758;5.076;2023-09-12T05:11:49;240.55;;;48.30;;
74162;SDS011;62515;52.758;5.076;2023-09-12T05:14:16;233.45;;;48.13;;
74162;SDS011;62515;52.758;5.076;2023-09-12T05:16:43;215.00;;;49.17;;
74162;SDS011;62515;52.758;5.076;2023-09-12T05:19:10;261.85;;;52.65;;
74162;SDS011;62515;52.758;5.076;2023-09-12T05:21:37;249.52;;;52.15;;
74162;SDS011;62515;52.758;5.076;2023-09-12T05:24:04;263.02;;;53.05;;
74162;SDS011;62515;52.758;5.076;2023-09-12T05:26:31;257.83;;;50.03;;
74162;SDS011;62515;52.758;5.076;2023-09-12T05:29:00;256.92;;;50.30;;
74162;SDS011;62515;52.758;5.076;2023-09-12T05:31:26;260.15;;;51.63;;
74162;SDS011;62515;52.758;5.076;2023-09-12T05:33:53;263.38;;;50.88;;
74162;SDS011;62515;52.758;5.076;2023-09-12T05:36:20;251.73;;;48.67;;
74162;SDS011;62515;52.758;5.076;2023-09-12T05:38:47;257.67;;;49.85;;
74162;SDS011;62515;52.758;5.076;2023-09-12T05:41:14;285.77;;;55.13;;
74162;SDS011;62515;52.758;5.076;2023-09-12T05:43:41;268.48;;;50.10;;
74162;SDS011;62515;52.758;5.076;2023-09-12T05:46:09;263.17;;;52.65;;
74162;SDS011;62515;52.758;5.076;2023-09-12T05:48:36;261.60;;;51.20;;
74162;SDS011;62515;52.758;5.076;2023-09-12T05:51:02;280.65;;;56.83;;
74162;SDS011;62515;52.758;5.076;2023-09-12T05:53:29;279.98;;;54.08;;
74162;SDS011;62515;52.758;5.076;2023-09-12T05:55:56;267.27;;;52.38;;
74162;SDS011;62515;52.758;5.076;2023-09-12T05:58:23;287.85;;;57.40;;
74162;SDS011;62515;52.758;5.076;2023-09-12T06:00:49;294.80;;;59.55;;
74162;SDS011;62515;52.758;5.076;2023-09-12T06:03:18;293.15;;;60.10;;
74162;SDS011;62515;52.758;5.076;2023-09-12T06:05:45;288.20;;;58.30;;
74162;SDS011;62515;52.758;5.076;2023-09-12T06:08:11;290.17;;;55.40;;
74162;SDS011;62515;52.758;5.076;2023-09-12T06:10:38;317.45;;;59.08;;
74162;SDS011;62515;52.758;5.076;2023-09-12T06:13:05;318.48;;;58.10;;
74162;SDS011;62515;52.758;5.076;2023-09-12T06:15:31;293.50;;;56.13;;
74162;SDS011;62515;52.758;5.076;2023-09-12T06:17:58;315.05;;;58.80;;
74162;SDS011;62515;52.758;5.076;2023-09-12T06:20:26;310.38;;;60.67;;
74162;SDS011;62515;52.758;5.076;2023-09-12T06:22:53;322.45;;;58.22;;
74162;SDS011;62515;52.758;5.076;2023-09-12T06:25:20;311.92;;;62.92;;
74162;SDS011;62515;52.758;5.076;2023-09-12T06:27:46;326.45;;;60.33;;
74162;SDS011;62515;52.758;5.076;2023-09-12T06:30:13;319.52;;;61.90;;
74162;SDS011;62515;52.758;5.076;2023-09-12T06:32:40;339.58;;;70.20;;
74162;SDS011;62515;52.758;5.076;2023-09-12T06:35:07;308.17;;;62.17;;
74162;SDS011;62515;52.758;5.076;2023-09-12T06:37:36;344.17;;;67.20;;
74162;SDS011;62515;52.758;5.076;2023-09-12T06:40:03;319.58;;;59.60;;
74162;SDS011;62515;52.758;5.076;2023-09-12T06:42:30;285.38;;;61.78;;
74162;SDS011;62515;52.758;5.076;2023-09-12T06:44:57;276.73;;;61.53;;
74162;SDS011;62515;52.758;5.076;2023-09-12T06:47:24;294.75;;;59.10;;
74162;SDS011;62515;52.758;5.076;2023-09-12T06:49:51;280.70;;;60.95;;
74162;SDS011;62515;52.758;5.076;2023-09-12T06:52:21;304.00;;;60.72;;
74162;SDS011;62515;52.758;5.076;2023-09-12T06:54:50;292.70;;;61.40;;
74162;SDS011;62515;52.758;5.076;2023-09-12T06:57:17;285.25;;;60.22;;
74162;SDS011;62515;52.758;5.076;2023-09-12T06:59:43;269.80;;;55.78;;
74162;SDS011;62515;52.758;5.076;2023-09-12T07:02:10;278.88;;;54.08;;
74162;SDS011;62515;52.758;5.076;2023-09-12T07:04:37;261.92;;;57.80;;
74162;SDS011;62515;52.758;5.076;2023-09-12T07:07:03;246.07;;;53.90;;
74162;SDS011;62515;52.758;5.076;2023-09-12T07:09:30;246.38;;;55.08;;
74162;SDS011;62515;52.758;5.076;2023-09-12T07:11:58;245.27;;;54.20;;
74162;SDS011;62515;52.758;5.076;2023-09-12T07:14:25;246.95;;;59.80;;
74162;SDS011;62515;52.758;5.076;2023-09-12T07:16:52;221.10;;;50.28;;
74162;SDS011;62515;52.758;5.076;2023-09-12T07:19:18;219.27;;;58.58;;
74162;SDS011;62515;52.758;5.076;2023-09-12T07:21:45;198.52;;;53.70;;
74162;SDS011;62515;52.758;5.076;2023-09-12T07:24:12;205.50;;;50.80;;
74162;SDS011;62515;52.758;5.076;2023-09-12T07:26:39;218.90;;;58.90;;
74162;SDS011;62515;52.758;5.076;2023-09-12T07:29:07;205.95;;;53.97;;
74162;SDS011;62515;52.758;5.076;2023-09-12T07:31:33;214.30;;;52.78;;
74162;SDS011;62515;52.758;5.076;2023-09-12T07:34:00;210.35;;;53.05;;
74162;SDS011;62515;52.758;5.076;2023-09-12T07:36:27;213.75;;;51.42;;
74162;SDS011;62515;52.758;5.076;2023-09-12T07:38:54;192.73;;;46.30;;
74162;SDS011;62515;52.758;5.076;2023-09-12T07:41:21;192.18;;;48.83;;
74162;SDS011;62515;52.758;5.076;2023-09-12T07:43:47;188.45;;;46.60;;
74162;SDS011;62515;52.758;5.076;2023-09-12T07:46:16;184.68;;;45.75;;
74162;SDS011;62515;52.758;5.076;2023-09-12T07:48:42;179.93;;;47.83;;
74162;SDS011;62515;52.758;5.076;2023-09-12T07:51:13;170.27;;;44.83;;
74162;SDS011;62515;52.758;5.076;2023-09-12T07:53:40;181.23;;;46.50;;
74162;SDS011;62515;52.758;5.076;2023-09-12T07:56:08;166.93;;;47.08;;
74162;SDS011;62515;52.758;5.076;2023-09-12T07:58:35;160.70;;;45.22;;
74162;SDS011;62515;52.758;5.076;2023-09-12T08:01:04;151.73;;;44.83;;
74162;SDS011;62515;52.758;5.076;2023-09-12T08:03:33;188.77;;;89.15;;
74162;SDS011;62515;52.758;5.076;2023-09-12T08:06:00;134.88;;;44.00;;
74162;SDS011;62515;52.758;5.076;2023-09-12T08:08:27;123.38;;;40.25;;
74162;SDS011;62515;52.758;5.076;2023-09-12T08:10:54;115.05;;;42.72;;
74162;SDS011;62515;52.758;5.076;2023-09-12T08:13:21;98.85;;;38.05;;
74162;SDS011;62515;52.758;5.076;2023-09-12T08:15:48;96.25;;;62.13;;
74162;SDS011;62515;52.758;5.076;2023-09-12T08:18:14;74.50;;;32.60;;
74162;SDS011;62515;52.758;5.076;2023-09-12T08:20:43;65.47;;;31.90;;
74162;SDS011;62515;52.758;5.076;2023-09-12T08:23:09;60.38;;;37.95;;
74162;SDS011;62515;52.758;5.076;2023-09-12T08:25:36;55.58;;;37.78;;
74162;SDS011;62515;52.758;5.076;2023-09-12T08:28:03;54.13;;;32.97;;
74162;SDS011;62515;52.758;5.076;2023-09-12T08:30:30;44.55;;;28.23;;
74162;SDS011;62515;52.758;5.076;2023-09-12T08:32:57;42.42;;;25.70;;
74162;SDS011;62515;52.758;5.076;2023-09-12T08:35:24;42.08;;;26.70;;
74162;SDS011;62515;52.758;5.076;2023-09-12T08:37:52;39.88;;;26.73;;
74162;SDS011;62515;52.758;5.076;2023-09-12T08:40:18;36.25;;;23.23;;
74162;SDS011;62515;52.758;5.076;2023-09-12T08:42:45;33.00;;;24.45;;
74162;SDS011;62515;52.758;5.076;2023-09-12T08:45:13;37.72;;;22.83;;
74162;SDS011;62515;52.758;5.076;2023-09-12T08:47:42;60.13;;;54.38;;
74162;SDS011;62515;52.758;5.076;2023-09-12T08:50:10;34.22;;;22.08;;
74162;SDS011;62515;52.758;5.076;2023-09-12T08:52:38;30.30;;;20.98;;
74162;SDS011;62515;52.758;5.076;2023-09-12T08:55:18;32.75;;;21.48;;
74162;SDS011;62515;52.758;5.076;2023-09-12T08:57:47;35.55;;;26.95;;
74162;SDS011;62515;52.758;5.076;2023-09-12T09:00:16;39.55;;;33.03;;
74162;SDS011;62515;52.758;5.076;2023-09-12T09:02:44;32.25;;;26.63;;
74162;SDS011;62515;52.758;5.076;2023-09-12T09:05:11;40.13;;;33.53;;
74162;SDS011;62515;52.758;5.076;2023-09-12T09:07:39;52.63;;;47.67;;
74162;SDS011;62515;52.758;5.076;2023-09-12T09:10:08;42.35;;;37.95;;
74162;SDS011;62515;52.758;5.076;2023-09-12T09:12:39;51.53;;;46.53;;
74162;SDS011;62515;52.758;5.076;2023-09-12T09:15:22;52.90;;;47.97;;
74162;SDS011;62515;52.758;5.076;2023-09-12T09:17:50;31.85;;;28.52;;
74162;SDS011;62515;52.758;5.076;2023-09-12T09:20:21;30.08;;;23.48;;
74162;SDS011;62515;52.758;5.076;2023-09-12T09:22:56;30.38;;;18.58;;
74162;SDS011;62515;52.758;5.076;2023-09-12T09:25:23;31.63;;;28.23;;
74162;SDS011;62515;52.758;5.076;2023-09-12T09:27:52;24.63;;;17.92;;
74162;SDS011;62515;52.758;5.076;2023-09-12T09:30:19;27.88;;;21.23;;
74162;SDS011;62515;52.758;5.076;2023-09-12T09:33:05;22.63;;;16.80;;
74162;SDS011;62515;52.758;5.076;2023-09-12T09:35:32;21.73;;;15.70;;
74162;SDS011;62515;52.758;5.076;2023-09-12T09:37:59;18.30;;;13.23;;
74162;SDS011;62515;52.758;5.076;2023-09-12T09:40:26;23.63;;;15.02;;
74162;SDS011;62515;52.758;5.076;2023-09-12T09:42:54;18.35;;;15.32;;
74162;SDS011;62515;52.758;5.076;2023-09-12T09:45:22;21.02;;;15.15;;
74162;SDS011;62515;52.758;5.076;2023-09-12T09:47:49;20.30;;;14.77;;
74162;SDS011;62515;52.758;5.076;2023-09-12T09:50:16;20.33;;;14.68;;
74162;SDS011;62515;52.758;5.076;2023-09-12T09:52:43;21.88;;;15.73;;
74162;SDS011;62515;52.758;5.076;2023-09-12T09:55:12;20.33;;;15.30;;
74162;SDS011;62515;52.758;5.076;2023-09-12T09:57:39;15.40;;;13.32;;
74162;SDS011;62515;52.758;5.076;2023-09-12T10:00:08;20.80;;;14.07;;
74162;SDS011;62515;52.758;5.076;2023-09-12T10:02:35;19.65;;;14.05;;
74162;SDS011;62515;52.758;5.076;2023-09-12T10:05:04;26.90;;;21.92;;
74162;SDS011;62515;52.758;5.076;2023-09-12T10:07:33;18.77;;;14.15;;
74162;SDS011;62515;52.758;5.076;2023-09-12T10:10:03;17.55;;;14.43;;
74162;SDS011;62515;52.758;5.076;2023-09-12T10:12:31;17.92;;;14.45;;
74162;SDS011;62515;52.758;5.076;2023-09-12T10:15:01;19.65;;;14.00;;
74162;SDS011;62515;52.758;5.076;2023-09-12T10:17:37;19.45;;;15.35;;
74162;SDS011;62515;52.758;5.076;2023-09-12T10:20:11;21.10;;;14.75;;
74162;SDS011;62515;52.758;5.076;2023-09-12T10:22:43;17.00;;;13.77;;
74162;SDS011;62515;52.758;5.076;2023-09-12T10:25:13;19.45;;;14.68;;
74162;SDS011;62515;52.758;5.076;2023-09-12T10:27:41;16.58;;;14.20;;
74162;SDS011;62515;52.758;5.076;2023-09-12T10:30:08;18.42;;;12.88;;
74162;SDS011;62515;52.758;5.076;2023-09-12T10:32:37;17.45;;;15.13;;
74162;SDS011;62515;52.758;5.076;2023-09-12T10:35:06;16.63;;;13.73;;
74162;SDS011;62515;52.758;5.076;2023-09-12T10:37:35;16.15;;;12.38;;
74162;SDS011;62515;52.758;5.076;2023-09-12T10:40:04;15.07;;;11.23;;
74162;SDS011;62515;52.758;5.076;2023-09-12T10:42:35;14.55;;;11.30;;
74162;SDS011;62515;52.758;5.076;2023-09-12T10:45:03;16.85;;;15.05;;
74162;SDS011;62515;52.758;5.076;2023-09-12T10:47:32;17.05;;;15.27;;
74162;SDS011;62515;52.758;5.076;2023-09-12T10:50:01;13.00;;;11.27;;
74162;SDS011;62515;52.758;5.076;2023-09-12T10:52:29;14.00;;;9.90;;
74162;SDS011;62515;52.758;5.076;2023-09-12T10:54:55;12.95;;;10.90;;
74162;SDS011;62515;52.758;5.076;2023-09-12T10:57:22;13.63;;;12.23;;
74162;SDS011;62515;52.758;5.076;2023-09-12T11:02:38;13.65;;;10.57;;
74162;SDS011;62515;52.758;5.076;2023-09-12T11:05:34;10.30;;;8.65;;
74162;SDS011;62515;52.758;5.076;2023-09-12T11:08:04;42.25;;;38.53;;
74162;SDS011;62515;52.758;5.076;2023-09-12T11:10:31;9.38;;;8.10;;
74162;SDS011;62515;52.758;5.076;2023-09-12T11:12:58;10.45;;;9.40;;
74162;SDS011;62515;52.758;5.076;2023-09-12T11:15:25;11.40;;;10.02;;
74162;SDS011;62515;52.758;5.076;2023-09-12T11:18:00;9.60;;;8.57;;
74162;SDS011;62515;52.758;5.076;2023-09-12T11:23:10;10.65;;;9.20;;
74162;SDS011;62515;52.758;5.076;2023-09-12T11:25:37;11.52;;;7.43;;
74162;SDS011;62515;52.758;5.076;2023-09-12T11:28:04;9.80;;;8.18;;
74162;SDS011;62515;52.758;5.076;2023-09-12T11:30:31;13.48;;;8.82;;
74162;SDS011;62515;52.758;5.076;2023-09-12T11:32:59;13.55;;;8.60;;
74162;SDS011;62515;52.758;5.076;2023-09-12T11:35:26;10.85;;;8.02;;
74162;SDS011;62515;52.758;5.076;2023-09-12T11:37:54;9.95;;;8.93;;
74162;SDS011;62515;52.758;5.076;2023-09-12T11:40:24;12.68;;;11.63;;
74162;SDS011;62515;52.758;5.076;2023-09-12T11:42:53;9.25;;;8.32;;
74162;SDS011;62515;52.758;5.076;2023-09-12T11:45:20;9.18;;;6.53;;
74162;SDS011;62515;52.758;5.076;2023-09-12T11:50:28;47.72;;;10.18;;
74162;SDS011;62515;52.758;5.076;2023-09-12T11:52:59;99.82;;;14.73;;
74162;SDS011;62515;52.758;5.076;2023-09-12T11:55:28;16.63;;;9.25;;
74162;SDS011;62515;52.758;5.076;2023-09-12T11:57:57;7.50;;;6.75;;
74162;SDS011;62515;52.758;5.076;2023-09-12T12:00:24;10.13;;;7.05;;
74162;SDS011;62515;52.758;5.076;2023-09-12T12:02:51;8.07;;;6.95;;
74162;SDS011;62515;52.758;5.076;2023-09-12T12:05:18;11.70;;;10.52;;
74162;SDS011;62515;52.758;5.076;2023-09-12T12:07:46;11.38;;;9.50;;
74162;SDS011;62515;52.758;5.076;2023-09-12T12:10:12;15.85;;;14.52;;
74162;SDS011;62515;52.758;5.076;2023-09-12T12:12:41;12.40;;;11.27;;
74162;SDS011;62515;52.758;5.076;2023-09-12T12:15:09;12.80;;;11.68;;
74162;SDS011;62515;52.758;5.076;2023-09-12T12:17:36;11.77;;;10.60;;
74162;SDS011;62515;52.758;5.076;2023-09-12T12:20:03;11.85;;;10.70;;
74162;SDS011;62515;52.758;5.076;2023-09-12T12:22:30;8.70;;;6.43;;
74162;SDS011;62515;52.758;5.076;2023-09-12T12:24:57;16.85;;;15.45;;
74162;SDS011;62515;52.758;5.076;2023-09-12T12:27:32;20.60;;;18.90;;
74162;SDS011;62515;52.758;5.076;2023-09-12T12:30:00;10.18;;;7.25;;
74162;SDS011;62515;52.758;5.076;2023-09-12T12:32:27;9.48;;;8.60;;
74162;SDS011;62515;52.758;5.076;2023-09-12T12:34:54;9.98;;;9.10;;
74162;SDS011;62515;52.758;5.076;2023-09-12T12:37:40;10.48;;;8.32;;
74162;SDS011;62515;52.758;5.076;2023-09-12T12:40:11;8.27;;;7.55;;
74162;SDS011;62515;52.758;5.076;2023-09-12T12:42:39;17.65;;;16.20;;
74162;SDS011;62515;52.758;5.076;2023-09-12T12:45:20;28.27;;;25.90;;
74162;SDS011;62515;52.758;5.076;2023-09-12T12:47:50;9.07;;;8.27;;
74162;SDS011;62515;52.758;5.076;2023-09-12T12:50:18;9.48;;;7.80;;
74162;SDS011;62515;52.758;5.076;2023-09-12T12:52:46;8.75;;;8.02;;
74162;SDS011;62515;52.758;5.076;2023-09-12T12:55:14;11.07;;;10.07;;
74162;SDS011;62515;52.758;5.076;2023-09-12T12:57:41;59.10;;;54.58;;
74162;SDS011;62515;52.758;5.076;2023-09-12T13:00:10;25.08;;;23.40;;
74162;SDS011;62515;52.758;5.076;2023-09-12T13:02:40;28.77;;;26.45;;
74162;SDS011;62515;52.758;5.076;2023-09-12T13:05:19;8.75;;;7.68;;
74162;SDS011;62515;52.758;5.076;2023-09-12T13:07:47;12.07;;;8.55;;
74162;SDS011;62515;52.758;5.076;2023-09-12T13:10:13;10.80;;;9.90;;
74162;SDS011;62515;52.758;5.076;2023-09-12T13:12:40;12.73;;;11.05;;
74162;SDS011;62515;52.758;5.076;2023-09-12T13:15:07;12.50;;;11.40;;
74162;SDS011;62515;52.758;5.076;2023-09-12T13:17:34;13.18;;;12.00;;
74162;SDS011;62515;52.758;5.076;2023-09-12T13:20:02;13.20;;;12.00;;
74162;SDS011;62515;52.758;5.076;2023-09-12T13:27:23;12.55;;;11.30;;
74162;SDS011;62515;52.758;5.076;2023-09-12T13:29:50;9.75;;;8.75;;
74162;SDS011;62515;52.758;5.076;2023-09-12T13:32:17;11.98;;;9.30;;
74162;SDS011;62515;52.758;5.076;2023-09-12T13:34:43;11.27;;;10.18;;
74162;SDS011;62515;52.758;5.076;2023-09-12T13:37:11;9.25;;;8.32;;
74162;SDS011;62515;52.758;5.076;2023-09-12T13:39:39;11.70;;;9.93;;
74162;SDS011;62515;52.758;5.076;2023-09-12T13:42:06;11.18;;;10.10;;
74162;SDS011;62515;52.758;5.076;2023-09-12T13:44:33;10.55;;;9.48;;
74162;SDS011;62515;52.758;5.076;2023-09-12T13:47:00;9.45;;;8.45;;
74162;SDS011;62515;52.758;5.076;2023-09-12T13:49:26;10.55;;;9.48;;
74162;SDS011;62515;52.758;5.076;2023-09-12T13:51:53;38.72;;;35.22;;
74162;SDS011;62515;52.758;5.076;2023-09-12T13:54:21;16.38;;;15.00;;
74162;SDS011;62515;52.758;5.076;2023-09-12T13:56:48;21.27;;;19.73;;
74162;SDS011;62515;52.758;5.076;2023-09-12T13:59:15;17.73;;;16.33;;
74162;SDS011;62515;52.758;5.076;2023-09-12T14:01:42;18.38;;;16.88;;
74162;SDS011;62515;52.758;5.076;2023-09-12T14:04:08;23.88;;;21.95;;
74162;SDS011;62515;52.758;5.076;2023-09-12T14:06:36;21.08;;;19.58;;
74162;SDS011;62515;52.758;5.076;2023-09-12T14:09:03;28.88;;;25.52;;
74162;SDS011;62515;52.758;5.076;2023-09-12T14:11:32;20.52;;;18.63;;
74162;SDS011;62515;52.758;5.076;2023-09-12T14:14:02;26.13;;;24.15;;
74162;SDS011;62515;52.758;5.076;2023-09-12T14:16:42;21.20;;;19.55;;
74162;SDS011;62515;52.758;5.076;2023-09-12T14:19:13;16.13;;;14.57;;
74162;SDS011;62515;52.758;5.076;2023-09-12T14:21:41;24.40;;;22.70;;
74162;SDS011;62515;52.758;5.076;2023-09-12T14:24:09;13.30;;;12.15;;
74162;SDS011;62515;52.758;5.076;2023-09-12T14:26:37;17.27;;;15.88;;
74162;SDS011;62515;52.758;5.076;2023-09-12T14:29:04;15.05;;;13.00;;
74162;SDS011;62515;52.758;5.076;2023-09-12T14:31:31;10.93;;;9.90;;
74162;SDS011;62515;52.758;5.076;2023-09-12T14:33:58;14.32;;;12.93;;
74162;SDS011;62515;52.758;5.076;2023-09-12T14:36:25;35.05;;;32.50;;
74162;SDS011;62515;52.758;5.076;2023-09-12T14:38:52;20.13;;;18.42;;